Sunday, October 26, 2014
03:03 UTC
  |  Log In   |  Register Free
Airport Search:

Powell Municipal Airport
(KPOY)

Powell Municipal Airport Diagram
No Airport Diagram Available

FAA data valid effective September 18, 2014 - November 13, 2014 (unless otherwise noted).

 
 
 
 
 
 
 
 
 
 
 
 
 
 

Current Aviation Weather for Powell Municipal Airport (KPOY)

The most recent METAR observation for KPOY was updated at: 0208
METAR Summary (Translated METAR)
KPOY
260155Z AUTO 22007KT 10SM CLR 14/M06 A2978 RMK AO2
KU68
260155Z AUTO 22003KT 10SM CLR 17/M06 A2974 RMK AO2 PWINO
(15 nm NE from KPOY)
KCOD
260155Z 00000KT 10SM CLR 14/M06 A2979 RMK AO1
(23.1 nm SW from KPOY)
TAF Summary (Translated TAF)
KCOD
252154Z 2522/2618 12012KT P6SM SKC FM260100 20007KT P6SM FEW120 SCT250 FM260400 23011KT P6SM FEW120 SCT250 WS020/25045KT FM261200 24011G21KT P6SM SCT100 BKN250 WS020/25050KT FM261700 25015G25KT P6SM SCT100 BKN250 AMD LTD TO CLD VIS AND WIND
  Airport Weather Conditions for KPOY

 Current Weather at POY
57° F
Fair
Southwest winds at 8.1 mph
POY NOAA Radar

Pressure: 29.78 in
Humidity: 25%
Wind: Southwest at 8.1 MPH (7 KT)
Dew Point: 21.2°F
Visibility: 10.00 mi


Airport Weather Forecast for KPOY

Translated METAR and TAF for KCOD
Translated METAR for KCOD (0258 UTC 26 October 2014)
found at http://aviationweather.gov/adds/metars/
 
METAR text: KCOD 260255Z 14007KT 10SM CLR 14/M07 A2979 RMK AO1 57010
Conditions at: KCOD (CODY , WY, US) observed 0255 UTC 26 October 2014
Temperature: 14.0°C (57°F)
Dewpoint: -7.0°C (19°F) [RH = 23%]
Pressure (altimeter): 29.79 inches Hg (1008.9 mb)
Winds: from the SE (140 degrees) at 8 MPH (7 knots; 3.6 m/s)
Visibility: 10 or more miles (16+ km)
Ceiling: at least 12,000 feet AGL
Clouds: sky clear below 12,000 feet AGL
Weather: no significant weather observed at this time
Translated TAF for KCOD
Forecast for: KCOD (CODY , WY, US)
TAF Text: KCOD 252320Z 2600/2624 14010KT P6SM BKN200
Forecast period: 0000 to 0200 UTC 26 October 2014
Forecast type: FROM: standard forecast or significant change
Winds: from the SE (140 degrees) at 12 MPH (10 knots; 5.2 m/s)
Visibility: 6 or more miles (10+ km)
Ceiling: 20000 feet AGL
Clouds: broken clouds at 20000 feet AGL
Weather: no significant weather forecast for this period
TAF Text: FM260200 20007KT P6SM FEW120 SCT250
Forecast period: 0200 to 0400 UTC 26 October 2014
Forecast type: FROM: standard forecast or significant change
Winds: from the SSW (200 degrees) at 8 MPH (7 knots; 3.6 m/s)
Visibility: 6 or more miles (10+ km)
Clouds: few clouds at 12000 feet AGL
scattered clouds at 25000 feet AGL
Weather: no significant weather forecast for this period
TAF Text: FM260400 23011KT P6SM FEW120 SCT250 WS020/25045KT
Forecast period: 0400 to 1200 UTC 26 October 2014
Forecast type: FROM: standard forecast or significant change
Winds: from the SW (230 degrees) at 13 MPH (11 knots; 5.7 m/s)
Visibility: 6 or more miles (10+ km)
Clouds: few clouds at 12000 feet AGL
scattered clouds at 25000 feet AGL
Wind shear: at 2000 feet ( 610 m) AGL, from the WSW (250 degrees) at 52 MPH (45 knots; 23.4 m/s)
Weather: no significant weather forecast for this period
TAF Text: FM261200 24011G21KT P6SM SCT100 BKN250 WS020/25050KT
Forecast period: 1200 to 1700 UTC 26 October 2014
Forecast type: FROM: standard forecast or significant change
Winds: from the WSW (240 degrees) at 13 MPH (11 knots; 5.7 m/s)
gusting to 24 MPH (21 knots; 10.9 m/s)
Visibility: 6 or more miles (10+ km)
Ceiling: 25000 feet AGL
Clouds: scattered clouds at 10000 feet AGL
broken clouds at 25000 feet AGL
Wind shear: at 2000 feet ( 610 m) AGL, from the WSW (250 degrees) at 57 MPH (50 knots; 26.0 m/s)
Weather: no significant weather forecast for this period
TAF Text: FM261700 25015G25KT P6SM SCT100 BKN250 AMD LTD TO CLD VIS AND WIND
Forecast period: 1700 UTC 26 October 2014 to 0000 UTC 27 October 2014
Forecast type: FROM: standard forecast or significant change
Winds: from the WSW (250 degrees) at 17 MPH (15 knots; 7.8 m/s)
gusting to 29 MPH (25 knots; 13.0 m/s)
Visibility: 6 or more miles (10+ km)
Ceiling: 25000 feet AGL
Clouds: scattered clouds at 10000 feet AGL
broken clouds at 25000 feet AGL
Weather: no significant weather forecast for this period

Find All Airport Services Find A Hotel Find A Rental Car Find A Golf Course Find A Restaurant $100 Hamburger



FBO's on the Field
FBO Company Facility Photos Services Transportation Aviation Fuel Prices: Prices include tax
Catering Weather Repair Courtesy Rental Type 100LL JetA JetA+ MOGAS 8087
 
City of Powell

This FBO has not yet been rated
FS:Independent
Last Updated: Oct-03
Login to update fuel prices
SS:
Contact City of PowellMore FBO Information
 
Add another FBO Facility Photos Catering Weather Repair Courtesy Rental Type 100LL JetA JetA+ MOGAS 8087
Services Transportation Aviation Fuel Prices: Prices include tax


model-print
model-print
model-print
model-print